sensor_id;sensor_type;location;lat;lon;timestamp;P1;durP1;ratioP1;P2;durP2;ratioP2
45812;SDS011;31519;45.408;10.962;2023-12-04T00:00:09;16.98;;;7.30;;
45812;SDS011;31519;45.408;10.962;2023-12-04T00:03:00;15.70;;;7.82;;
45812;SDS011;31519;45.408;10.962;2023-12-04T00:05:28;17.77;;;7.35;;
45812;SDS011;31519;45.408;10.962;2023-12-04T00:07:57;12.00;;;6.57;;
45812;SDS011;31519;45.408;10.962;2023-12-04T00:10:26;15.40;;;6.63;;
45812;SDS011;31519;45.408;10.962;2023-12-04T00:12:54;13.60;;;6.75;;
45812;SDS011;31519;45.408;10.962;2023-12-04T00:15:22;14.85;;;6.85;;
45812;SDS011;31519;45.408;10.962;2023-12-04T00:17:51;11.18;;;6.70;;
45812;SDS011;31519;45.408;10.962;2023-12-04T00:20:19;12.27;;;6.65;;
45812;SDS011;31519;45.408;10.962;2023-12-04T00:22:47;13.23;;;6.40;;
45812;SDS011;31519;45.408;10.962;2023-12-04T00:25:15;16.83;;;7.57;;
45812;SDS011;31519;45.408;10.962;2023-12-04T00:27:43;12.65;;;6.85;;
45812;SDS011;31519;45.408;10.962;2023-12-04T00:30:11;12.43;;;6.45;;
45812;SDS011;31519;45.408;10.962;2023-12-04T00:32:41;12.38;;;6.32;;
45812;SDS011;31519;45.408;10.962;2023-12-04T00:35:09;14.00;;;6.70;;
45812;SDS011;31519;45.408;10.962;2023-12-04T00:37:37;12.50;;;6.68;;
45812;SDS011;31519;45.408;10.962;2023-12-04T00:40:06;17.52;;;7.13;;
45812;SDS011;31519;45.408;10.962;2023-12-04T00:42:35;15.73;;;6.72;;
45812;SDS011;31519;45.408;10.962;2023-12-04T00:45:03;13.68;;;8.10;;
45812;SDS011;31519;45.408;10.962;2023-12-04T00:47:32;13.90;;;6.40;;
45812;SDS011;31519;45.408;10.962;2023-12-04T00:50:00;10.80;;;6.22;;
45812;SDS011;31519;45.408;10.962;2023-12-04T00:52:28;10.15;;;6.25;;
45812;SDS011;31519;45.408;10.962;2023-12-04T00:54:57;15.75;;;6.22;;
45812;SDS011;31519;45.408;10.962;2023-12-04T00:57:25;15.00;;;7.28;;
45812;SDS011;31519;45.408;10.962;2023-12-04T00:59:53;15.45;;;6.82;;
45812;SDS011;31519;45.408;10.962;2023-12-04T01:02:21;11.35;;;6.40;;
45812;SDS011;31519;45.408;10.962;2023-12-04T01:04:50;16.55;;;6.75;;
45812;SDS011;31519;45.408;10.962;2023-12-04T01:07:18;13.10;;;6.03;;
45812;SDS011;31519;45.408;10.962;2023-12-04T01:09:46;12.25;;;6.65;;
45812;SDS011;31519;45.408;10.962;2023-12-04T01:12:14;10.10;;;6.35;;
45812;SDS011;31519;45.408;10.962;2023-12-04T01:14:43;21.40;;;7.60;;
45812;SDS011;31519;45.408;10.962;2023-12-04T01:17:11;14.82;;;6.93;;
45812;SDS011;31519;45.408;10.962;2023-12-04T01:19:39;14.05;;;7.38;;
45812;SDS011;31519;45.408;10.962;2023-12-04T01:22:07;15.20;;;6.97;;
45812;SDS011;31519;45.408;10.962;2023-12-04T01:24:35;9.75;;;5.65;;
45812;SDS011;31519;45.408;10.962;2023-12-04T01:27:03;14.77;;;6.50;;
45812;SDS011;31519;45.408;10.962;2023-12-04T01:29:32;13.25;;;6.10;;
45812;SDS011;31519;45.408;10.962;2023-12-04T01:32:00;14.52;;;7.25;;
45812;SDS011;31519;45.408;10.962;2023-12-04T01:34:28;11.20;;;6.40;;
45812;SDS011;31519;45.408;10.962;2023-12-04T01:36:56;9.90;;;6.28;;
45812;SDS011;31519;45.408;10.962;2023-12-04T01:39:24;10.30;;;6.32;;
45812;SDS011;31519;45.408;10.962;2023-12-04T01:41:52;10.15;;;6.13;;
45812;SDS011;31519;45.408;10.962;2023-12-04T01:44:21;11.85;;;6.75;;
45812;SDS011;31519;45.408;10.962;2023-12-04T01:46:50;11.43;;;6.93;;
45812;SDS011;31519;45.408;10.962;2023-12-04T01:49:18;14.70;;;7.28;;
45812;SDS011;31519;45.408;10.962;2023-12-04T01:51:46;24.80;;;7.68;;
45812;SDS011;31519;45.408;10.962;2023-12-04T01:54:15;12.85;;;6.32;;
45812;SDS011;31519;45.408;10.962;2023-12-04T01:56:44;11.38;;;6.03;;
45812;SDS011;31519;45.408;10.962;2023-12-04T01:59:13;9.75;;;5.70;;
45812;SDS011;31519;45.408;10.962;2023-12-04T02:01:41;9.55;;;5.10;;
45812;SDS011;31519;45.408;10.962;2023-12-04T02:04:10;12.25;;;5.43;;
45812;SDS011;31519;45.408;10.962;2023-12-04T02:06:40;10.98;;;4.82;;
45812;SDS011;31519;45.408;10.962;2023-12-04T02:09:08;10.32;;;5.90;;
45812;SDS011;31519;45.408;10.962;2023-12-04T02:11:40;9.10;;;6.05;;
45812;SDS011;31519;45.408;10.962;2023-12-04T02:14:08;8.23;;;4.07;;
45812;SDS011;31519;45.408;10.962;2023-12-04T02:16:39;9.05;;;5.20;;
45812;SDS011;31519;45.408;10.962;2023-12-04T02:19:12;15.80;;;4.47;;
45812;SDS011;31519;45.408;10.962;2023-12-04T02:21:41;6.18;;;4.50;;
45812;SDS011;31519;45.408;10.962;2023-12-04T02:24:09;9.13;;;4.55;;
45812;SDS011;31519;45.408;10.962;2023-12-04T02:26:44;6.55;;;3.80;;
45812;SDS011;31519;45.408;10.962;2023-12-04T02:29:32;14.35;;;5.80;;
45812;SDS011;31519;45.408;10.962;2023-12-04T02:32:06;6.55;;;4.18;;
45812;SDS011;31519;45.408;10.962;2023-12-04T02:34:39;5.78;;;3.90;;
45812;SDS011;31519;45.408;10.962;2023-12-04T02:37:09;8.32;;;3.88;;
45812;SDS011;31519;45.408;10.962;2023-12-04T02:39:39;11.60;;;4.03;;
45812;SDS011;31519;45.408;10.962;2023-12-04T02:42:07;6.93;;;4.30;;
45812;SDS011;31519;45.408;10.962;2023-12-04T02:44:35;7.88;;;4.20;;
45812;SDS011;31519;45.408;10.962;2023-12-04T02:47:03;8.45;;;4.38;;
45812;SDS011;31519;45.408;10.962;2023-12-04T02:49:32;6.38;;;4.30;;
45812;SDS011;31519;45.408;10.962;2023-12-04T02:52:00;9.27;;;4.75;;
45812;SDS011;31519;45.408;10.962;2023-12-04T02:54:28;8.20;;;4.53;;
45812;SDS011;31519;45.408;10.962;2023-12-04T02:56:56;6.70;;;4.10;;
45812;SDS011;31519;45.408;10.962;2023-12-04T02:59:25;5.55;;;3.80;;
45812;SDS011;31519;45.408;10.962;2023-12-04T03:01:53;6.18;;;3.88;;
45812;SDS011;31519;45.408;10.962;2023-12-04T03:04:21;7.07;;;3.80;;
45812;SDS011;31519;45.408;10.962;2023-12-04T03:06:49;5.35;;;3.47;;
45812;SDS011;31519;45.408;10.962;2023-12-04T03:09:17;14.52;;;4.10;;
45812;SDS011;31519;45.408;10.962;2023-12-04T03:11:45;8.27;;;4.22;;
45812;SDS011;31519;45.408;10.962;2023-12-04T03:14:13;4.90;;;3.50;;
45812;SDS011;31519;45.408;10.962;2023-12-04T03:16:41;6.55;;;3.83;;
45812;SDS011;31519;45.408;10.962;2023-12-04T03:19:10;7.20;;;3.85;;
45812;SDS011;31519;45.408;10.962;2023-12-04T03:21:38;6.40;;;4.30;;
45812;SDS011;31519;45.408;10.962;2023-12-04T03:24:06;5.75;;;3.53;;
45812;SDS011;31519;45.408;10.962;2023-12-04T03:26:36;8.43;;;3.45;;
45812;SDS011;31519;45.408;10.962;2023-12-04T03:29:04;5.65;;;3.72;;
45812;SDS011;31519;45.408;10.962;2023-12-04T03:31:32;8.35;;;4.05;;
45812;SDS011;31519;45.408;10.962;2023-12-04T03:34:02;6.13;;;4.10;;
45812;SDS011;31519;45.408;10.962;2023-12-04T03:36:30;5.10;;;3.45;;
45812;SDS011;31519;45.408;10.962;2023-12-04T03:38:58;8.60;;;4.00;;
45812;SDS011;31519;45.408;10.962;2023-12-04T03:41:26;9.32;;;4.03;;
45812;SDS011;31519;45.408;10.962;2023-12-04T03:43:55;11.48;;;5.03;;
45812;SDS011;31519;45.408;10.962;2023-12-04T03:46:23;8.73;;;4.78;;
45812;SDS011;31519;45.408;10.962;2023-12-04T03:48:52;8.02;;;4.47;;
45812;SDS011;31519;45.408;10.962;2023-12-04T03:51:20;8.52;;;4.20;;
45812;SDS011;31519;45.408;10.962;2023-12-04T03:53:48;9.45;;;4.70;;
45812;SDS011;31519;45.408;10.962;2023-12-04T03:56:19;11.60;;;4.60;;
45812;SDS011;31519;45.408;10.962;2023-12-04T03:58:48;7.03;;;4.25;;
45812;SDS011;31519;45.408;10.962;2023-12-04T04:01:16;7.47;;;4.32;;
45812;SDS011;31519;45.408;10.962;2023-12-04T04:03:44;5.80;;;4.15;;
45812;SDS011;31519;45.408;10.962;2023-12-04T04:06:13;4.93;;;4.00;;
45812;SDS011;31519;45.408;10.962;2023-12-04T04:08:42;8.25;;;4.88;;
45812;SDS011;31519;45.408;10.962;2023-12-04T04:11:10;8.55;;;4.75;;
45812;SDS011;31519;45.408;10.962;2023-12-04T04:13:39;9.05;;;4.53;;
45812;SDS011;31519;45.408;10.962;2023-12-04T04:16:07;6.75;;;4.35;;
45812;SDS011;31519;45.408;10.962;2023-12-04T04:18:40;14.60;;;5.30;;
45812;SDS011;31519;45.408;10.962;2023-12-04T04:21:08;6.65;;;4.57;;
45812;SDS011;31519;45.408;10.962;2023-12-04T04:23:37;9.13;;;4.57;;
45812;SDS011;31519;45.408;10.962;2023-12-04T04:26:05;7.30;;;4.15;;
45812;SDS011;31519;45.408;10.962;2023-12-04T04:28:34;10.13;;;5.05;;
45812;SDS011;31519;45.408;10.962;2023-12-04T04:31:02;8.38;;;4.75;;
45812;SDS011;31519;45.408;10.962;2023-12-04T04:33:30;8.32;;;4.90;;
45812;SDS011;31519;45.408;10.962;2023-12-04T04:35:58;6.47;;;4.10;;
45812;SDS011;31519;45.408;10.962;2023-12-04T04:38:26;8.15;;;4.47;;
45812;SDS011;31519;45.408;10.962;2023-12-04T04:40:54;6.47;;;3.67;;
45812;SDS011;31519;45.408;10.962;2023-12-04T04:43:24;6.43;;;4.07;;
45812;SDS011;31519;45.408;10.962;2023-12-04T04:45:52;6.05;;;3.95;;
45812;SDS011;31519;45.408;10.962;2023-12-04T04:48:21;6.55;;;4.50;;
45812;SDS011;31519;45.408;10.962;2023-12-04T04:50:49;7.95;;;4.88;;
45812;SDS011;31519;45.408;10.962;2023-12-04T04:53:17;6.30;;;4.10;;
45812;SDS011;31519;45.408;10.962;2023-12-04T04:55:45;8.43;;;4.80;;
45812;SDS011;31519;45.408;10.962;2023-12-04T04:58:16;5.78;;;4.05;;
45812;SDS011;31519;45.408;10.962;2023-12-04T05:00:45;8.75;;;4.93;;
45812;SDS011;31519;45.408;10.962;2023-12-04T05:03:15;10.02;;;4.82;;
45812;SDS011;31519;45.408;10.962;2023-12-04T05:05:44;9.45;;;4.60;;
45812;SDS011;31519;45.408;10.962;2023-12-04T05:08:12;9.57;;;5.45;;
45812;SDS011;31519;45.408;10.962;2023-12-04T05:10:40;8.55;;;4.15;;
45812;SDS011;31519;45.408;10.962;2023-12-04T05:13:08;9.10;;;4.68;;
45812;SDS011;31519;45.408;10.962;2023-12-04T05:15:36;6.60;;;4.45;;
45812;SDS011;31519;45.408;10.962;2023-12-04T05:18:05;11.82;;;5.15;;
45812;SDS011;31519;45.408;10.962;2023-12-04T05:20:33;11.35;;;4.50;;
45812;SDS011;31519;45.408;10.962;2023-12-04T05:23:02;8.35;;;5.47;;
45812;SDS011;31519;45.408;10.962;2023-12-04T05:25:30;7.95;;;5.10;;
45812;SDS011;31519;45.408;10.962;2023-12-04T05:28:07;7.88;;;5.55;;
45812;SDS011;31519;45.408;10.962;2023-12-04T05:30:36;12.07;;;5.32;;
45812;SDS011;31519;45.408;10.962;2023-12-04T05:33:05;9.65;;;5.90;;
45812;SDS011;31519;45.408;10.962;2023-12-04T05:35:33;21.92;;;6.35;;
45812;SDS011;31519;45.408;10.962;2023-12-04T05:38:03;9.02;;;5.70;;
45812;SDS011;31519;45.408;10.962;2023-12-04T05:40:31;6.82;;;4.40;;
45812;SDS011;31519;45.408;10.962;2023-12-04T05:42:59;8.98;;;5.15;;
45812;SDS011;31519;45.408;10.962;2023-12-04T05:45:27;8.57;;;5.80;;
45812;SDS011;31519;45.408;10.962;2023-12-04T05:47:56;9.75;;;5.25;;
45812;SDS011;31519;45.408;10.962;2023-12-04T05:50:24;15.07;;;4.75;;
45812;SDS011;31519;45.408;10.962;2023-12-04T05:52:52;12.57;;;5.85;;
45812;SDS011;31519;45.408;10.962;2023-12-04T05:55:20;9.57;;;5.32;;
45812;SDS011;31519;45.408;10.962;2023-12-04T05:57:48;8.48;;;4.78;;
45812;SDS011;31519;45.408;10.962;2023-12-04T06:00:16;8.40;;;5.50;;
45812;SDS011;31519;45.408;10.962;2023-12-04T06:02:45;10.48;;;5.43;;
45812;SDS011;31519;45.408;10.962;2023-12-04T06:05:13;7.10;;;5.22;;
45812;SDS011;31519;45.408;10.962;2023-12-04T06:07:41;8.77;;;4.57;;
45812;SDS011;31519;45.408;10.962;2023-12-04T06:10:09;12.68;;;5.70;;
45812;SDS011;31519;45.408;10.962;2023-12-04T06:12:39;12.32;;;5.47;;
45812;SDS011;31519;45.408;10.962;2023-12-04T06:15:07;13.23;;;5.90;;
45812;SDS011;31519;45.408;10.962;2023-12-04T06:17:36;13.75;;;6.57;;
45812;SDS011;31519;45.408;10.962;2023-12-04T06:20:05;7.82;;;5.30;;
45812;SDS011;31519;45.408;10.962;2023-12-04T06:22:34;9.27;;;5.10;;
45812;SDS011;31519;45.408;10.962;2023-12-04T06:25:03;8.80;;;4.60;;
45812;SDS011;31519;45.408;10.962;2023-12-04T06:27:31;8.68;;;4.57;;
45812;SDS011;31519;45.408;10.962;2023-12-04T06:30:00;9.18;;;4.90;;
45812;SDS011;31519;45.408;10.962;2023-12-04T06:32:28;9.70;;;4.90;;
45812;SDS011;31519;45.408;10.962;2023-12-04T06:34:57;6.13;;;4.38;;
45812;SDS011;31519;45.408;10.962;2023-12-04T06:37:25;12.80;;;4.90;;
45812;SDS011;31519;45.408;10.962;2023-12-04T06:39:53;10.70;;;5.07;;
45812;SDS011;31519;45.408;10.962;2023-12-04T06:42:23;7.28;;;4.38;;
45812;SDS011;31519;45.408;10.962;2023-12-04T06:44:51;9.90;;;4.70;;
45812;SDS011;31519;45.408;10.962;2023-12-04T06:47:22;12.10;;;5.38;;
45812;SDS011;31519;45.408;10.962;2023-12-04T06:49:51;9.20;;;3.92;;
45812;SDS011;31519;45.408;10.962;2023-12-04T06:52:19;12.35;;;4.93;;
45812;SDS011;31519;45.408;10.962;2023-12-04T06:54:47;7.07;;;4.97;;
45812;SDS011;31519;45.408;10.962;2023-12-04T06:57:15;11.68;;;5.40;;
45812;SDS011;31519;45.408;10.962;2023-12-04T06:59:43;8.88;;;4.55;;
45812;SDS011;31519;45.408;10.962;2023-12-04T07:02:12;8.18;;;5.03;;
45812;SDS011;31519;45.408;10.962;2023-12-04T07:04:40;11.63;;;5.13;;
45812;SDS011;31519;45.408;10.962;2023-12-04T07:07:08;13.40;;;5.78;;
45812;SDS011;31519;45.408;10.962;2023-12-04T07:09:36;9.85;;;5.80;;
45812;SDS011;31519;45.408;10.962;2023-12-04T07:12:05;10.40;;;5.70;;
45812;SDS011;31519;45.408;10.962;2023-12-04T07:14:34;13.50;;;5.28;;
45812;SDS011;31519;45.408;10.962;2023-12-04T07:17:02;10.18;;;5.95;;
45812;SDS011;31519;45.408;10.962;2023-12-04T07:19:30;10.45;;;6.30;;
45812;SDS011;31519;45.408;10.962;2023-12-04T07:21:58;17.13;;;6.60;;
45812;SDS011;31519;45.408;10.962;2023-12-04T07:24:26;13.35;;;6.03;;
45812;SDS011;31519;45.408;10.962;2023-12-04T07:26:55;23.08;;;7.95;;
45812;SDS011;31519;45.408;10.962;2023-12-04T07:29:23;20.08;;;5.97;;
45812;SDS011;31519;45.408;10.962;2023-12-04T07:31:51;13.85;;;5.43;;
45812;SDS011;31519;45.408;10.962;2023-12-04T07:34:19;12.60;;;5.35;;
45812;SDS011;31519;45.408;10.962;2023-12-04T07:36:48;9.02;;;4.80;;
45812;SDS011;31519;45.408;10.962;2023-12-04T07:39:16;18.92;;;6.15;;
45812;SDS011;31519;45.408;10.962;2023-12-04T07:41:44;18.10;;;6.25;;
45812;SDS011;31519;45.408;10.962;2023-12-04T07:44:12;29.40;;;7.40;;
45812;SDS011;31519;45.408;10.962;2023-12-04T07:46:41;40.28;;;9.07;;
45812;SDS011;31519;45.408;10.962;2023-12-04T07:49:09;47.22;;;10.20;;
45812;SDS011;31519;45.408;10.962;2023-12-04T07:51:37;32.45;;;10.50;;
45812;SDS011;31519;45.408;10.962;2023-12-04T07:54:05;50.60;;;9.23;;
45812;SDS011;31519;45.408;10.962;2023-12-04T07:56:34;39.10;;;10.48;;
45812;SDS011;31519;45.408;10.962;2023-12-04T07:59:02;46.55;;;11.90;;
45812;SDS011;31519;45.408;10.962;2023-12-04T08:01:30;33.78;;;9.52;;
45812;SDS011;31519;45.408;10.962;2023-12-04T08:03:58;28.95;;;9.18;;
45812;SDS011;31519;45.408;10.962;2023-12-04T08:06:27;28.52;;;10.48;;
45812;SDS011;31519;45.408;10.962;2023-12-04T08:08:55;28.52;;;10.75;;
45812;SDS011;31519;45.408;10.962;2023-12-04T08:11:25;34.17;;;12.45;;
45812;SDS011;31519;45.408;10.962;2023-12-04T08:13:53;44.47;;;12.15;;
45812;SDS011;31519;45.408;10.962;2023-12-04T08:16:21;43.17;;;13.82;;
45812;SDS011;31519;45.408;10.962;2023-12-04T08:18:49;55.63;;;14.93;;
45812;SDS011;31519;45.408;10.962;2023-12-04T08:21:17;57.95;;;16.38;;
45812;SDS011;31519;45.408;10.962;2023-12-04T08:23:45;57.80;;;15.23;;
45812;SDS011;31519;45.408;10.962;2023-12-04T08:26:20;70.70;;;16.40;;
45812;SDS011;31519;45.408;10.962;2023-12-04T08:28:50;32.75;;;9.50;;
45812;SDS011;31519;45.408;10.962;2023-12-04T08:31:19;36.20;;;9.18;;
45812;SDS011;31519;45.408;10.962;2023-12-04T08:33:47;31.92;;;8.95;;
45812;SDS011;31519;45.408;10.962;2023-12-04T08:36:15;22.90;;;7.38;;
45812;SDS011;31519;45.408;10.962;2023-12-04T08:38:44;34.05;;;8.80;;
45812;SDS011;31519;45.408;10.962;2023-12-04T08:41:12;15.68;;;7.05;;
45812;SDS011;31519;45.408;10.962;2023-12-04T08:43:40;21.63;;;6.50;;
45812;SDS011;31519;45.408;10.962;2023-12-04T08:46:11;13.98;;;5.65;;
45812;SDS011;31519;45.408;10.962;2023-12-04T08:48:43;16.77;;;6.43;;
45812;SDS011;31519;45.408;10.962;2023-12-04T08:51:15;23.75;;;6.28;;
45812;SDS011;31519;45.408;10.962;2023-12-04T08:53:44;19.75;;;6.35;;
45812;SDS011;31519;45.408;10.962;2023-12-04T08:56:12;16.98;;;5.85;;
45812;SDS011;31519;45.408;10.962;2023-12-04T08:58:48;18.40;;;5.72;;
45812;SDS011;31519;45.408;10.962;2023-12-04T09:01:18;20.35;;;6.03;;
45812;SDS011;31519;45.408;10.962;2023-12-04T09:03:46;14.55;;;5.85;;
45812;SDS011;31519;45.408;10.962;2023-12-04T09:06:14;24.58;;;6.20;;
45812;SDS011;31519;45.408;10.962;2023-12-04T09:08:43;11.50;;;6.00;;
45812;SDS011;31519;45.408;10.962;2023-12-04T09:11:23;11.50;;;6.20;;
45812;SDS011;31519;45.408;10.962;2023-12-04T09:13:51;12.32;;;5.93;;
45812;SDS011;31519;45.408;10.962;2023-12-04T09:16:19;24.98;;;6.45;;
45812;SDS011;31519;45.408;10.962;2023-12-04T09:18:47;22.88;;;7.38;;
45812;SDS011;31519;45.408;10.962;2023-12-04T09:21:16;13.48;;;5.95;;
45812;SDS011;31519;45.408;10.962;2023-12-04T09:23:45;17.70;;;6.25;;
45812;SDS011;31519;45.408;10.962;2023-12-04T09:26:18;15.75;;;6.00;;
45812;SDS011;31519;45.408;10.962;2023-12-04T09:28:46;21.58;;;6.88;;
45812;SDS011;31519;45.408;10.962;2023-12-04T09:31:15;22.90;;;7.32;;
45812;SDS011;31519;45.408;10.962;2023-12-04T09:33:43;18.23;;;7.82;;
45812;SDS011;31519;45.408;10.962;2023-12-04T09:36:11;25.42;;;7.18;;
45812;SDS011;31519;45.408;10.962;2023-12-04T09:38:39;15.60;;;6.45;;
45812;SDS011;31519;45.408;10.962;2023-12-04T09:41:08;22.77;;;7.78;;
45812;SDS011;31519;45.408;10.962;2023-12-04T09:43:39;24.65;;;7.85;;
45812;SDS011;31519;45.408;10.962;2023-12-04T09:46:09;20.40;;;6.70;;
45812;SDS011;31519;45.408;10.962;2023-12-04T09:48:38;18.15;;;6.47;;
45812;SDS011;31519;45.408;10.962;2023-12-04T09:51:09;15.43;;;6.90;;
45812;SDS011;31519;45.408;10.962;2023-12-04T09:53:37;21.50;;;7.13;;
45812;SDS011;31519;45.408;10.962;2023-12-04T09:56:09;23.85;;;8.40;;
45812;SDS011;31519;45.408;10.962;2023-12-04T09:58:39;19.70;;;7.57;;
45812;SDS011;31519;45.408;10.962;2023-12-04T10:01:09;45.35;;;7.35;;
45812;SDS011;31519;45.408;10.962;2023-12-04T10:03:39;30.52;;;9.93;;
45812;SDS011;31519;45.408;10.962;2023-12-04T10:06:09;19.98;;;7.28;;
45812;SDS011;31519;45.408;10.962;2023-12-04T10:08:44;28.42;;;7.90;;
45812;SDS011;31519;45.408;10.962;2023-12-04T10:11:13;23.42;;;8.13;;
45812;SDS011;31519;45.408;10.962;2023-12-04T10:13:41;27.70;;;7.95;;
45812;SDS011;31519;45.408;10.962;2023-12-04T10:16:35;17.70;;;8.05;;
45812;SDS011;31519;45.408;10.962;2023-12-04T10:22:05;14.20;;;7.43;;
45812;SDS011;31519;45.408;10.962;2023-12-04T10:24:39;14.43;;;7.05;;
45812;SDS011;31519;45.408;10.962;2023-12-04T10:27:08;13.88;;;6.68;;
45812;SDS011;31519;45.408;10.962;2023-12-04T10:29:46;20.25;;;7.28;;
45812;SDS011;31519;45.408;10.962;2023-12-04T10:32:19;14.93;;;6.18;;
45812;SDS011;31519;45.408;10.962;2023-12-04T10:34:50;22.85;;;6.60;;
45812;SDS011;31519;45.408;10.962;2023-12-04T10:37:19;19.02;;;6.95;;
45812;SDS011;31519;45.408;10.962;2023-12-04T10:42:23;23.80;;;7.55;;
45812;SDS011;31519;45.408;10.962;2023-12-04T10:44:56;23.38;;;7.25;;
45812;SDS011;31519;45.408;10.962;2023-12-04T10:47:29;18.15;;;6.97;;
45812;SDS011;31519;45.408;10.962;2023-12-04T10:50:00;22.15;;;7.60;;
45812;SDS011;31519;45.408;10.962;2023-12-04T10:52:31;23.02;;;9.00;;
45812;SDS011;31519;45.408;10.962;2023-12-04T10:54:59;21.23;;;8.35;;
45812;SDS011;31519;45.408;10.962;2023-12-04T10:57:33;25.63;;;7.55;;
45812;SDS011;31519;45.408;10.962;2023-12-04T11:00:06;19.50;;;7.68;;
45812;SDS011;31519;45.408;10.962;2023-12-04T11:02:37;21.83;;;7.45;;
45812;SDS011;31519;45.408;10.962;2023-12-04T11:05:15;19.42;;;7.28;;
45812;SDS011;31519;45.408;10.962;2023-12-04T11:07:50;20.27;;;8.98;;
45812;SDS011;31519;45.408;10.962;2023-12-04T11:11:02;19.17;;;8.02;;
45812;SDS011;31519;45.408;10.962;2023-12-04T11:13:42;16.23;;;8.13;;
45812;SDS011;31519;45.408;10.962;2023-12-04T11:18:46;20.85;;;7.57;;
45812;SDS011;31519;45.408;10.962;2023-12-04T11:21:18;18.65;;;7.55;;
45812;SDS011;31519;45.408;10.962;2023-12-04T11:23:48;16.48;;;7.85;;
45812;SDS011;31519;45.408;10.962;2023-12-04T11:26:18;19.52;;;8.32;;
45812;SDS011;31519;45.408;10.962;2023-12-04T11:28:47;27.80;;;8.65;;
45812;SDS011;31519;45.408;10.962;2023-12-04T11:31:16;18.23;;;7.55;;
45812;SDS011;31519;45.408;10.962;2023-12-04T11:33:45;16.30;;;7.47;;
45812;SDS011;31519;45.408;10.962;2023-12-04T11:36:13;19.92;;;7.88;;
45812;SDS011;31519;45.408;10.962;2023-12-04T11:38:44;16.58;;;8.32;;
45812;SDS011;31519;45.408;10.962;2023-12-04T11:41:23;24.35;;;8.48;;
45812;SDS011;31519;45.408;10.962;2023-12-04T11:43:55;27.45;;;8.85;;
45812;SDS011;31519;45.408;10.962;2023-12-04T11:46:25;15.35;;;7.97;;
45812;SDS011;31519;45.408;10.962;2023-12-04T11:48:56;17.60;;;9.02;;
45812;SDS011;31519;45.408;10.962;2023-12-04T11:51:45;21.60;;;8.40;;
45812;SDS011;31519;45.408;10.962;2023-12-04T11:54:16;19.58;;;8.13;;
45812;SDS011;31519;45.408;10.962;2023-12-04T11:57:34;19.17;;;8.07;;
45812;SDS011;31519;45.408;10.962;2023-12-04T11:59:37;26.98;;;8.93;;
45812;SDS011;31519;45.408;10.962;2023-12-04T12:02:07;18.15;;;7.72;;
45812;SDS011;31519;45.408;10.962;2023-12-04T12:04:38;28.17;;;8.55;;
45812;SDS011;31519;45.408;10.962;2023-12-04T12:07:06;27.60;;;11.18;;
45812;SDS011;31519;45.408;10.962;2023-12-04T12:09:35;26.95;;;10.15;;
45812;SDS011;31519;45.408;10.962;2023-12-04T12:12:04;17.00;;;8.77;;
45812;SDS011;31519;45.408;10.962;2023-12-04T12:14:33;24.75;;;8.40;;
45812;SDS011;31519;45.408;10.962;2023-12-04T12:17:01;19.35;;;9.43;;
45812;SDS011;31519;45.408;10.962;2023-12-04T12:19:30;19.20;;;9.57;;
45812;SDS011;31519;45.408;10.962;2023-12-04T12:21:58;24.10;;;9.88;;
45812;SDS011;31519;45.408;10.962;2023-12-04T12:24:28;23.75;;;9.05;;
45812;SDS011;31519;45.408;10.962;2023-12-04T12:26:57;26.55;;;8.40;;
45812;SDS011;31519;45.408;10.962;2023-12-04T12:29:25;34.10;;;9.80;;
45812;SDS011;31519;45.408;10.962;2023-12-04T12:31:55;21.77;;;9.52;;
45812;SDS011;31519;45.408;10.962;2023-12-04T12:34:23;30.13;;;9.25;;
45812;SDS011;31519;45.408;10.962;2023-12-04T12:36:51;15.82;;;7.57;;
45812;SDS011;31519;45.408;10.962;2023-12-04T12:39:21;15.90;;;7.82;;
45812;SDS011;31519;45.408;10.962;2023-12-04T12:41:49;16.95;;;8.18;;
45812;SDS011;31519;45.408;10.962;2023-12-04T12:44:18;29.35;;;8.75;;
45812;SDS011;31519;45.408;10.962;2023-12-04T12:46:47;23.70;;;10.30;;
45812;SDS011;31519;45.408;10.962;2023-12-04T12:49:19;19.15;;;7.70;;
45812;SDS011;31519;45.408;10.962;2023-12-04T12:52:05;18.65;;;6.60;;
45812;SDS011;31519;45.408;10.962;2023-12-04T12:54:37;12.75;;;7.82;;
45812;SDS011;31519;45.408;10.962;2023-12-04T12:57:09;18.98;;;8.45;;
45812;SDS011;31519;45.408;10.962;2023-12-04T12:59:39;25.30;;;8.13;;
45812;SDS011;31519;45.408;10.962;2023-12-04T13:02:07;14.55;;;7.90;;
45812;SDS011;31519;45.408;10.962;2023-12-04T13:04:36;22.42;;;7.65;;
45812;SDS011;31519;45.408;10.962;2023-12-04T13:07:14;15.15;;;7.88;;
45812;SDS011;31519;45.408;10.962;2023-12-04T13:09:42;26.50;;;8.95;;
45812;SDS011;31519;45.408;10.962;2023-12-04T13:12:11;18.58;;;8.98;;
45812;SDS011;31519;45.408;10.962;2023-12-04T13:14:39;16.75;;;8.38;;
45812;SDS011;31519;45.408;10.962;2023-12-04T13:17:09;19.63;;;8.63;;
45812;SDS011;31519;45.408;10.962;2023-12-04T13:19:37;17.92;;;8.73;;
45812;SDS011;31519;45.408;10.962;2023-12-04T13:22:05;17.92;;;9.07;;
45812;SDS011;31519;45.408;10.962;2023-12-04T13:24:36;31.08;;;8.02;;
45812;SDS011;31519;45.408;10.962;2023-12-04T13:27:04;13.80;;;7.75;;
45812;SDS011;31519;45.408;10.962;2023-12-04T13:29:32;24.45;;;8.38;;
45812;SDS011;31519;45.408;10.962;2023-12-04T13:32:00;27.38;;;9.40;;
45812;SDS011;31519;45.408;10.962;2023-12-04T13:34:29;18.92;;;8.02;;
45812;SDS011;31519;45.408;10.962;2023-12-04T13:36:57;16.75;;;8.15;;
45812;SDS011;31519;45.408;10.962;2023-12-04T13:39:26;19.63;;;8.35;;
45812;SDS011;31519;45.408;10.962;2023-12-04T13:42:04;16.30;;;8.88;;
45812;SDS011;31519;45.408;10.962;2023-12-04T13:44:51;18.80;;;8.93;;
45812;SDS011;31519;45.408;10.962;2023-12-04T13:47:19;20.00;;;8.30;;
45812;SDS011;31519;45.408;10.962;2023-12-04T13:49:47;20.92;;;8.27;;
45812;SDS011;31519;45.408;10.962;2023-12-04T13:52:16;15.40;;;8.15;;
45812;SDS011;31519;45.408;10.962;2023-12-04T13:57:20;23.50;;;8.68;;
45812;SDS011;31519;45.408;10.962;2023-12-04T13:59:49;15.10;;;8.23;;
45812;SDS011;31519;45.408;10.962;2023-12-04T14:02:17;13.45;;;7.43;;
45812;SDS011;31519;45.408;10.962;2023-12-04T14:04:45;19.52;;;8.25;;
45812;SDS011;31519;45.408;10.962;2023-12-04T14:07:14;12.10;;;7.97;;
45812;SDS011;31519;45.408;10.962;2023-12-04T14:09:44;22.35;;;9.05;;
45812;SDS011;31519;45.408;10.962;2023-12-04T14:12:13;14.10;;;8.73;;
45812;SDS011;31519;45.408;10.962;2023-12-04T14:14:44;24.73;;;8.25;;
45812;SDS011;31519;45.408;10.962;2023-12-04T14:17:12;19.02;;;7.25;;
45812;SDS011;31519;45.408;10.962;2023-12-04T14:19:40;13.70;;;7.60;;
45812;SDS011;31519;45.408;10.962;2023-12-04T14:22:10;16.08;;;8.40;;
45812;SDS011;31519;45.408;10.962;2023-12-04T14:24:38;15.38;;;7.80;;
45812;SDS011;31519;45.408;10.962;2023-12-04T14:27:06;16.20;;;8.00;;
45812;SDS011;31519;45.408;10.962;2023-12-04T14:29:35;19.33;;;7.63;;
45812;SDS011;31519;45.408;10.962;2023-12-04T14:32:04;21.30;;;8.45;;
45812;SDS011;31519;45.408;10.962;2023-12-04T14:34:32;19.77;;;8.95;;
45812;SDS011;31519;45.408;10.962;2023-12-04T14:37:01;12.82;;;7.95;;
45812;SDS011;31519;45.408;10.962;2023-12-04T14:39:29;15.00;;;8.55;;
45812;SDS011;31519;45.408;10.962;2023-12-04T14:41:57;17.17;;;7.97;;
45812;SDS011;31519;45.408;10.962;2023-12-04T14:44:25;19.02;;;8.90;;
45812;SDS011;31519;45.408;10.962;2023-12-04T14:46:54;15.77;;;9.23;;